createdAt,value
2018-04-10T00:02:17.462Z,97066.41
2018-04-10T00:04:44.926Z,97062.83
2018-04-10T00:07:12.410Z,97059.73
2018-04-10T00:09:39.944Z,97062.53
2018-04-10T00:12:07.431Z,97068.50
2018-04-10T00:14:35.017Z,97068.16
2018-04-10T00:17:02.495Z,97074.91
2018-04-10T00:19:30.006Z,97077.97
2018-04-10T00:21:57.465Z,97076.45
2018-04-10T00:24:24.988Z,97071.42
2018-04-10T00:26:52.476Z,97071.66
2018-04-10T00:29:19.952Z,97075.13
2018-04-10T00:31:47.427Z,97082.19
2018-04-10T00:34:14.902Z,97078.84
2018-04-10T00:36:42.354Z,97082.06
2018-04-10T00:39:10.161Z,97085.06
2018-04-10T00:41:37.653Z,97088.73
2018-04-10T00:44:05.155Z,97090.84
2018-04-10T00:46:32.654Z,97090.53
2018-04-10T00:49:00.155Z,97096.28
2018-04-10T00:51:27.613Z,97086.47
2018-04-10T00:53:55.056Z,97085.99
2018-04-10T00:56:22.522Z,97087.33
2018-04-10T00:58:50.014Z,97085.32
2018-04-10T01:01:17.517Z,97089.95
2018-04-10T01:03:44.997Z,97084.86
2018-04-10T01:06:12.487Z,97085.29
2018-04-10T01:08:40.082Z,97084.83
2018-04-10T01:11:07.596Z,97083.33
2018-04-10T01:13:35.075Z,97084.81
2018-04-10T01:16:02.558Z,97085.27
2018-04-10T01:18:30.057Z,97082.17
2018-04-10T01:20:57.536Z,97081.78
2018-04-10T01:23:25.022Z,97083.30
2018-04-10T01:25:52.474Z,97084.02
2018-04-10T01:28:19.997Z,97091.98
2018-04-10T01:30:47.453Z,97086.96
2018-04-10T01:33:14.942Z,97088.55
2018-04-10T01:35:42.436Z,97084.16
2018-04-10T01:38:10.005Z,97092.35
2018-04-10T01:40:37.489Z,97089.75
2018-04-10T01:43:04.944Z,97089.63
2018-04-10T01:45:32.413Z,97085.34
2018-04-10T01:47:59.896Z,97083.20
2018-04-10T01:50:27.368Z,97080.50
2018-04-10T01:52:55.061Z,97085.22
2018-04-10T01:55:22.569Z,97085.27
2018-04-10T01:57:50.058Z,97093.36
2018-04-10T02:00:17.546Z,97087.48
2018-04-10T02:02:45.052Z,97095.41
2018-04-10T02:05:12.583Z,97097.52
2018-04-10T02:07:40.064Z,97096.16
2018-04-10T02:10:07.548Z,97102.01
2018-04-10T02:12:35.022Z,97097.17
2018-04-10T02:15:02.489Z,97092.97
2018-04-10T02:17:29.957Z,97093.16
2018-04-10T02:19:57.425Z,97093.08
2018-04-10T02:22:24.916Z,97091.77
2018-04-10T02:24:52.413Z,97090.72
2018-04-10T02:27:19.898Z,97092.97
2018-04-10T02:29:47.367Z,97090.30
2018-04-10T02:32:14.875Z,97093.91
2018-04-10T02:34:42.379Z,97099.72
2018-04-10T02:37:10.034Z,97095.89
2018-04-10T02:39:37.577Z,97093.56
2018-04-10T02:42:05.056Z,97091.56
2018-04-10T02:44:32.517Z,97090.59
2018-04-10T02:47:00.001Z,97091.78
2018-04-10T02:49:27.497Z,97092.16
2018-04-10T02:51:55.161Z,97089.23
2018-04-10T02:54:22.653Z,97093.48
2018-04-10T02:56:50.114Z,97088.55
2018-04-10T02:59:17.572Z,97090.92
2018-04-10T03:01:45.097Z,97097.47
2018-04-10T03:04:12.597Z,97101.29
2018-04-10T03:06:40.103Z,97098.11
2018-04-10T03:09:07.846Z,97096.06
2018-04-10T03:11:35.335Z,97091.95
2018-04-10T03:14:03.059Z,97087.33
2018-04-10T03:16:30.510Z,97087.70
2018-04-10T03:18:58.156Z,97087.23
2018-04-10T03:21:25.767Z,97083.72
2018-04-10T03:23:53.235Z,97087.41
2018-04-10T03:26:20.700Z,97087.07
2018-04-10T03:28:48.153Z,97085.59
2018-04-10T03:31:15.637Z,97079.94
2018-04-10T03:33:43.099Z,97080.48
2018-04-10T03:36:10.616Z,97080.83
2018-04-10T03:38:38.183Z,97080.10
2018-04-10T03:41:05.650Z,97073.78
2018-04-10T03:43:33.414Z,97075.81
2018-04-10T03:46:00.877Z,97067.41
2018-04-10T03:48:28.375Z,97060.67
2018-04-10T03:50:55.886Z,97062.92
2018-04-10T03:53:23.390Z,97059.06
2018-04-10T03:55:50.910Z,97056.12
2018-04-10T03:58:18.416Z,97049.64
2018-04-10T04:00:45.928Z,97041.63
2018-04-10T04:03:13.423Z,97025.75
2018-04-10T04:05:40.936Z,97025.14
2018-04-10T04:08:08.474Z,97025.84
2018-04-10T04:10:35.986Z,97021.16
2018-04-10T04:13:03.472Z,97015.45
2018-04-10T04:15:30.986Z,97018.28
2018-04-10T04:17:58.551Z,97011.25
2018-04-10T04:20:38.958Z,97002.39
2018-04-10T04:23:06.422Z,96997.94
2018-04-10T04:25:34.761Z,96996.69
2018-04-10T04:28:02.300Z,96991.25
2018-04-10T04:30:29.769Z,96992.86
2018-04-10T04:32:57.432Z,96983.99
2018-04-10T04:35:24.902Z,96990.30
2018-04-10T04:37:52.389Z,96994.55
2018-04-10T04:40:20.139Z,96989.92
2018-04-10T04:42:47.633Z,96998.37
2018-04-10T04:45:15.169Z,97004.36
2018-04-10T04:47:42.656Z,97012.89
2018-04-10T04:50:10.188Z,97021.78
2018-04-10T04:52:37.669Z,97024.82
2018-04-10T04:55:05.148Z,97025.09
2018-04-10T04:57:32.687Z,97017.17
2018-04-10T05:00:00.249Z,97015.13
2018-04-10T05:02:27.776Z,97028.47
2018-04-10T05:04:55.255Z,97027.17
2018-04-10T05:07:22.748Z,97030.61
2018-04-10T05:09:50.251Z,97035.50
2018-04-10T05:12:17.786Z,97033.92
2018-04-10T05:14:45.283Z,97029.16
2018-04-10T05:17:12.767Z,97024.91
2018-04-10T05:19:40.299Z,97024.99
2018-04-10T05:22:07.889Z,97019.63
2018-04-10T05:24:35.363Z,97017.74
2018-04-10T05:29:36.724Z,97033.44
2018-04-10T05:32:04.227Z,97038.19
2018-04-10T05:34:31.714Z,97031.26
2018-04-10T05:36:59.242Z,97028.53
2018-04-10T05:39:26.824Z,97022.55
2018-04-10T05:41:54.322Z,97017.95
2018-04-10T05:44:21.831Z,97020.98
2018-04-10T05:46:49.329Z,97029.38
2018-04-10T05:49:16.845Z,97029.94
2018-04-10T05:51:44.440Z,97035.95
2018-04-10T05:54:11.944Z,97033.59
2018-04-10T05:56:39.429Z,97039.00
2018-04-10T05:59:06.932Z,97039.02
2018-04-10T06:01:34.434Z,97048.42
2018-04-10T06:04:01.967Z,97054.33
2018-04-10T06:06:29.450Z,97060.19
2018-04-10T06:08:56.976Z,97051.05
2018-04-10T06:11:24.585Z,97043.94
2018-04-10T06:13:52.086Z,97044.59
2018-04-10T06:16:19.591Z,97046.63
2018-04-10T06:18:47.090Z,97045.98
2018-04-10T06:21:14.607Z,97045.05
2018-04-10T06:23:42.112Z,97053.53
2018-04-10T06:26:09.703Z,97054.13
2018-04-10T06:28:37.213Z,97052.77
2018-04-10T06:31:04.704Z,97050.42
2018-04-10T06:33:32.185Z,97052.31
2018-04-10T06:35:59.760Z,97059.05
2018-04-10T06:38:27.242Z,97054.86
2018-04-10T06:40:54.762Z,97058.39
2018-04-10T06:43:22.239Z,97057.72
2018-04-10T06:45:49.732Z,97065.02
2018-04-10T06:48:17.253Z,97060.30
2018-04-10T06:50:44.803Z,97057.48
2018-04-10T06:53:12.279Z,97055.75
2018-04-10T06:55:39.770Z,97050.28
2018-04-10T06:58:07.300Z,97050.13
2018-04-10T07:00:34.806Z,97054.22
2018-04-10T07:03:02.296Z,97061.96
2018-04-10T07:05:29.935Z,97060.70
2018-04-10T07:07:57.448Z,97059.39
2018-04-10T07:10:24.967Z,97057.88
2018-04-10T07:12:52.446Z,97061.84
2018-04-10T07:15:19.936Z,97053.72
2018-04-10T07:17:47.655Z,97051.56
2018-04-10T07:20:15.152Z,97051.41
2018-04-10T07:22:42.665Z,97049.19
2018-04-10T07:25:10.202Z,97053.19
2018-04-10T07:27:37.728Z,97049.72
2018-04-10T07:30:05.225Z,97051.70
2018-04-10T07:32:32.761Z,97051.28
2018-04-10T07:35:00.316Z,97048.42
2018-04-10T07:37:27.793Z,97045.87
2018-04-10T07:39:55.317Z,97042.58
2018-04-10T07:42:22.837Z,97042.90
2018-04-10T07:44:50.503Z,97041.80
2018-04-10T07:47:17.995Z,97040.84
2018-04-10T07:49:45.496Z,97046.68
2018-04-10T07:52:12.979Z,97037.70
2018-04-10T07:54:40.550Z,97042.43
2018-04-10T07:57:08.025Z,97043.83
2018-04-10T07:59:35.523Z,97039.21
2018-04-10T08:02:03.074Z,97039.73
2018-04-10T08:04:30.562Z,97046.02
2018-04-10T08:06:58.055Z,97039.64
2018-04-10T08:09:25.548Z,97039.34
2018-04-10T08:11:53.067Z,97039.15
2018-04-10T08:14:20.552Z,97036.10
2018-04-10T08:16:48.045Z,97042.15
2018-04-10T08:19:15.532Z,97032.55
2018-04-10T08:21:43.022Z,97038.40
2018-04-10T08:24:10.501Z,97031.15
2018-04-10T08:26:37.973Z,97026.74
2018-04-10T08:29:05.600Z,97023.30
2018-04-10T08:31:33.148Z,97016.55
2018-04-10T08:34:00.694Z,97024.89
2018-04-10T08:36:28.293Z,97016.38
2018-04-10T08:38:55.801Z,97015.51
2018-04-10T08:41:23.294Z,97003.59
2018-04-10T08:43:50.998Z,97004.77
2018-04-10T08:46:18.486Z,97008.17
2018-04-10T08:48:45.989Z,97019.23
2018-04-10T08:51:13.496Z,97018.52
2018-04-10T08:53:41.029Z,97026.64
2018-04-10T08:56:08.522Z,97023.91
2018-04-10T08:58:36.002Z,97023.34
2018-04-10T09:01:03.507Z,97030.33
2018-04-10T09:03:31.017Z,97025.62
2018-04-10T09:05:58.533Z,97028.44
2018-04-10T09:08:26.052Z,97032.14
2018-04-10T09:10:53.559Z,97035.61
2018-04-10T09:13:21.052Z,97034.48
2018-04-10T09:15:48.550Z,97035.27
2018-04-10T09:18:16.089Z,97034.91
2018-04-10T09:20:43.583Z,97032.97
2018-04-10T09:23:11.147Z,97031.84
2018-04-10T09:25:38.757Z,97031.43
2018-04-10T09:28:06.324Z,97029.84
2018-04-10T09:30:33.847Z,97026.24
2018-04-10T09:33:01.462Z,97021.37
2018-04-10T09:35:28.976Z,97025.66
2018-04-10T09:37:56.471Z,97017.91
2018-04-10T09:40:23.987Z,97017.88
2018-04-10T09:42:51.553Z,97022.34
2018-04-10T09:45:19.091Z,97022.59
2018-04-10T09:47:46.623Z,97017.20
2018-04-10T09:50:14.192Z,97020.28
2018-04-10T09:52:41.656Z,97016.13
2018-04-10T09:55:09.281Z,97023.05
2018-04-10T09:57:36.788Z,97015.10
2018-04-10T10:00:04.308Z,97011.47
2018-04-10T10:02:31.823Z,97004.97
2018-04-10T10:04:59.325Z,96997.07
2018-04-10T10:07:26.830Z,96991.48
2018-04-10T10:09:54.314Z,96980.92
2018-04-10T10:12:21.782Z,96975.58
2018-04-10T10:14:49.439Z,96963.95
2018-04-10T10:17:17.014Z,96972.86
2018-04-10T10:19:44.504Z,96979.80
2018-04-10T10:22:11.999Z,96974.66
2018-04-10T10:24:39.485Z,96973.53
2018-04-10T10:27:07.120Z,96967.81
2018-04-10T10:29:34.732Z,96971.66
2018-04-10T10:32:02.332Z,96967.44
2018-04-10T10:34:29.853Z,96970.42
2018-04-10T10:36:58.588Z,96974.61
2018-04-10T10:39:26.090Z,96972.45
2018-04-10T10:41:53.600Z,96978.78
2018-04-10T10:44:21.072Z,96974.66
2018-04-10T10:46:48.627Z,96977.95
2018-04-10T10:49:16.159Z,96978.31
2018-04-10T10:51:43.644Z,96978.44
2018-04-10T10:54:11.140Z,96988.95
2018-04-10T10:56:38.785Z,96989.98
2018-04-10T10:59:06.252Z,96984.52
2018-04-10T11:01:33.761Z,96987.25
2018-04-10T11:04:01.307Z,96976.34
2018-04-10T11:06:28.811Z,96977.38
2018-04-10T11:08:56.347Z,96979.20
2018-04-10T11:11:24.052Z,96971.05
2018-04-10T11:13:51.601Z,96971.26
2018-04-10T11:16:19.100Z,96959.73
2018-04-10T11:18:46.603Z,96959.63
2018-04-10T11:21:14.117Z,96955.29
2018-04-10T11:23:41.602Z,96951.38
2018-04-10T11:26:09.092Z,96951.16
2018-04-10T11:28:36.642Z,96943.09
2018-04-10T11:31:04.178Z,96938.86
2018-04-10T11:33:31.691Z,96927.73
2018-04-10T11:35:59.226Z,96925.55
2018-04-10T11:38:26.719Z,96924.70
2018-04-10T11:40:54.220Z,96915.27
2018-04-10T11:43:21.713Z,96916.53
2018-04-10T11:45:49.218Z,96919.36
2018-04-10T11:48:16.711Z,96905.92
2018-04-10T11:50:44.202Z,96900.99
2018-04-10T11:53:11.724Z,96907.05
2018-04-10T11:55:39.214Z,96897.40
2018-04-10T11:58:06.683Z,96892.39
2018-04-10T12:00:34.240Z,96895.77
2018-04-10T12:03:01.768Z,96900.94
2018-04-10T12:05:29.262Z,96898.45
2018-04-10T12:07:56.780Z,96896.04
2018-04-10T12:10:24.351Z,96890.09
2018-04-10T12:12:51.884Z,96893.13
2018-04-10T12:15:19.445Z,96886.66
2018-04-10T12:17:46.951Z,96889.75
2018-04-10T12:20:14.446Z,96895.45
2018-04-10T12:22:41.940Z,96890.06
2018-04-10T12:25:09.426Z,96888.84
2018-04-10T12:27:37.022Z,96875.90
2018-04-10T12:30:04.541Z,96884.95
2018-04-10T12:32:32.133Z,96883.83
2018-04-10T12:34:59.659Z,96888.39
2018-04-10T12:37:27.122Z,96888.19
2018-04-10T12:39:54.688Z,96893.86
2018-04-10T12:42:22.193Z,96883.44
2018-04-10T12:44:49.697Z,96878.18
2018-04-10T12:47:17.188Z,96880.06
2018-04-10T12:49:44.691Z,96879.28
2018-04-10T12:52:12.165Z,96882.50
2018-04-10T12:54:39.664Z,96873.31
2018-04-10T12:57:07.282Z,96874.58
2018-04-10T12:59:34.762Z,96871.62
2018-04-10T13:02:02.251Z,96858.44
2018-04-10T13:04:29.752Z,96850.97
2018-04-10T13:06:57.251Z,96851.67
2018-04-10T13:09:24.750Z,96849.31
2018-04-10T13:11:52.237Z,96851.13
2018-04-10T13:14:19.967Z,96849.12
2018-04-10T13:16:47.479Z,96853.04
2018-04-10T13:19:15.030Z,96848.13
2018-04-10T13:21:42.591Z,96857.31
2018-04-10T13:24:11.307Z,96852.87
2018-04-10T13:26:38.845Z,96850.13
2018-04-10T13:29:06.293Z,96853.73
2018-04-10T13:31:33.788Z,96843.81
2018-04-10T13:34:01.324Z,96854.66
2018-04-10T13:36:29.001Z,96857.12
2018-04-10T13:38:56.498Z,96861.08
2018-04-10T13:41:23.981Z,96862.34
2018-04-10T13:43:51.567Z,96857.30
2018-04-10T13:46:19.153Z,96857.86
2018-04-10T13:48:46.643Z,96859.37
2018-04-10T13:51:14.118Z,96863.05
2018-04-10T13:53:41.620Z,96861.25
2018-04-10T13:56:09.230Z,96864.41
2018-04-10T13:58:36.733Z,96854.98
2018-04-10T14:01:04.284Z,96857.95
2018-04-10T14:03:31.844Z,96854.54
2018-04-10T14:05:59.345Z,96848.81
2018-04-10T14:08:26.903Z,96846.58
2018-04-10T14:10:54.412Z,96857.34
2018-04-10T14:13:21.913Z,96849.69
2018-04-10T14:15:49.422Z,96851.08
2018-04-10T14:18:16.942Z,96854.50
2018-04-10T14:20:44.451Z,96851.09
2018-04-10T14:23:11.970Z,96850.20
2018-04-10T14:25:39.458Z,96849.73
2018-04-10T14:28:06.952Z,96853.66
2018-04-10T14:30:34.471Z,96839.05
2018-04-10T14:33:02.044Z,96847.36
2018-04-10T14:35:30.085Z,96847.20
2018-04-10T14:37:57.579Z,96843.34
2018-04-10T14:40:25.117Z,96841.95
2018-04-10T14:42:52.641Z,96847.20
2018-04-10T14:45:20.130Z,96844.27
2018-04-10T14:47:47.634Z,96841.12
2018-04-10T14:50:15.247Z,96846.08
2018-04-10T14:52:42.728Z,96847.00
2018-04-10T14:55:10.220Z,96854.41
2018-04-10T14:57:37.760Z,96852.81
2018-04-10T15:00:05.230Z,96856.25
2018-04-10T15:02:32.744Z,96854.38
2018-04-10T15:05:00.308Z,96848.52
2018-04-10T15:07:27.809Z,96852.77
2018-04-10T15:09:55.297Z,96845.73
2018-04-10T15:12:22.887Z,96851.22
2018-04-10T15:14:50.447Z,96858.69
2018-04-10T15:17:18.017Z,96884.57
2018-04-10T15:19:45.508Z,96900.58
2018-04-10T15:22:12.986Z,96926.28
2018-04-10T15:24:40.533Z,96924.70
2018-04-10T15:27:08.028Z,96932.38
2018-04-10T15:29:35.520Z,96941.65
2018-04-10T15:32:03.033Z,96955.25
2018-04-10T15:34:30.697Z,96960.73
2018-04-10T15:36:58.335Z,96976.29
2018-04-10T15:39:25.983Z,96984.14
2018-04-10T15:41:53.634Z,96986.04
2018-04-10T15:44:21.453Z,96978.13
2018-04-10T15:46:48.990Z,96977.56
2018-04-10T15:49:16.549Z,96965.31
2018-04-10T15:51:44.027Z,96977.58
2018-04-10T15:54:11.531Z,96977.74
2018-04-10T15:56:39.082Z,96983.52
2018-04-10T15:59:07.115Z,96985.33
2018-04-10T16:01:34.608Z,97002.48
2018-04-10T16:04:02.241Z,97007.38
2018-04-10T16:06:29.935Z,97005.97
2018-04-10T16:08:57.469Z,96992.06
2018-04-10T16:11:24.948Z,97006.70
2018-04-10T16:13:52.668Z,97008.39
2018-04-10T16:16:20.231Z,97033.91
2018-04-10T16:18:48.148Z,97058.00
2018-04-10T16:21:15.804Z,97082.34
2018-04-10T16:23:43.301Z,97096.12
2018-04-10T16:26:10.831Z,97087.25
2018-04-10T16:28:38.325Z,97110.33
2018-04-10T16:31:05.847Z,97113.88
2018-04-10T16:33:33.354Z,97114.80
2018-04-10T16:36:00.862Z,97132.52
2018-04-10T16:38:28.346Z,97137.14
2018-04-10T16:40:55.865Z,97161.67
2018-04-10T16:43:23.340Z,97177.97
2018-04-10T16:45:50.883Z,97192.98
2018-04-10T16:48:18.407Z,97216.71
2018-04-10T16:50:45.895Z,97234.48
2018-04-10T16:53:13.421Z,97226.57
2018-04-10T16:55:42.009Z,97242.87
2018-04-10T16:58:09.533Z,97238.19
2018-04-10T17:00:37.048Z,97230.11
2018-04-10T17:03:04.537Z,97179.16
2018-04-10T17:05:32.045Z,97171.95
2018-04-10T17:07:59.559Z,97166.45
2018-04-10T17:10:27.176Z,97150.20
2018-04-10T17:12:54.660Z,97152.67
2018-04-10T17:15:22.183Z,97138.45
2018-04-10T17:17:49.719Z,97150.67
2018-04-10T17:20:17.308Z,97162.52
2018-04-10T17:22:44.817Z,97159.82
2018-04-10T17:25:12.322Z,97159.18
2018-04-10T17:27:39.805Z,97152.61
2018-04-10T17:30:07.355Z,97159.02
2018-04-10T17:32:34.846Z,97152.64
2018-04-10T17:35:02.417Z,97146.66
2018-04-10T17:37:29.920Z,97155.59
2018-04-10T17:39:57.521Z,97163.50
2018-04-10T17:42:25.008Z,97174.77
2018-04-10T17:44:52.595Z,97177.59
2018-04-10T17:47:20.102Z,97192.56
2018-04-10T17:49:47.913Z,97225.59
2018-04-10T17:52:15.441Z,97249.04
2018-04-10T17:54:44.851Z,97263.65
2018-04-10T17:57:12.764Z,97268.69
2018-04-10T17:59:40.325Z,97272.92
2018-04-10T18:02:07.880Z,97273.25
2018-04-10T18:04:35.359Z,97285.03
2018-04-10T18:07:02.855Z,97297.09
2018-04-10T18:09:30.405Z,97308.01
2018-04-10T18:11:57.981Z,97317.22
2018-04-10T18:14:25.483Z,97319.69
2018-04-10T18:16:53.018Z,97301.25
2018-04-10T18:19:20.580Z,97305.66
2018-04-10T18:21:53.322Z,97314.33
2018-04-10T18:24:20.850Z,97316.16
2018-04-10T18:26:48.763Z,97315.05
2018-04-10T18:29:19.608Z,97322.84
2018-04-10T18:31:47.159Z,97320.44
2018-04-10T18:34:15.697Z,97322.88
2018-04-10T18:36:43.723Z,97313.23
2018-04-10T18:39:12.566Z,97321.48
2018-04-10T18:41:40.080Z,97330.85
2018-04-10T18:44:07.602Z,97337.23
2018-04-10T18:46:35.160Z,97342.56
2018-04-10T18:49:02.735Z,97344.20
2018-04-10T18:51:30.352Z,97332.95
2018-04-10T18:53:57.933Z,97343.34
2018-04-10T18:56:25.434Z,97369.81
2018-04-10T18:58:52.943Z,97375.34
2018-04-10T19:01:20.421Z,97382.38
2018-04-10T19:03:48.009Z,97387.46
2018-04-10T19:06:15.789Z,97386.13
2018-04-10T19:08:43.327Z,97372.90
2018-04-10T19:11:10.929Z,97376.41
2018-04-10T19:13:40.538Z,97401.24
2018-04-10T19:16:08.150Z,97410.17
2018-04-10T19:18:35.973Z,97409.14
2018-04-10T19:21:03.497Z,97394.70
2018-04-10T19:23:31.022Z,97396.30
2018-04-10T19:25:58.844Z,97396.03
2018-04-10T19:28:26.516Z,97380.13
2018-04-10T19:30:55.080Z,97370.41
2018-04-10T19:33:22.789Z,97372.25
2018-04-10T19:35:50.351Z,97372.84
2018-04-10T19:38:17.844Z,97368.39
2018-04-10T19:40:45.359Z,97361.58
2018-04-10T19:43:15.759Z,97368.42
2018-04-10T19:45:43.429Z,97365.10
2018-04-10T19:48:10.900Z,97357.88
2018-04-10T19:50:38.436Z,97358.02
2018-04-10T19:53:06.147Z,97356.13
2018-04-10T19:55:33.793Z,97341.66
2018-04-10T19:58:01.341Z,97335.80
2018-04-10T20:00:28.912Z,97325.66
2018-04-10T20:02:57.553Z,97311.97
2018-04-10T20:05:25.055Z,97312.03
2018-04-10T20:07:52.637Z,97329.97
2018-04-10T20:10:20.110Z,97348.73
2018-04-10T20:12:47.635Z,97367.70
2018-04-10T20:15:15.384Z,97389.63
2018-04-10T20:17:42.982Z,97391.36
2018-04-10T20:20:10.792Z,97374.14
2018-04-10T20:22:38.452Z,97363.05
2018-04-10T20:25:05.959Z,97371.02
2018-04-10T20:27:33.594Z,97360.42
2018-04-10T20:30:01.167Z,97341.59
2018-04-10T20:32:28.713Z,97340.02
2018-04-10T20:34:56.246Z,97354.59
2018-04-10T20:37:23.787Z,97353.71
2018-04-10T20:39:51.435Z,97356.57
2018-04-10T20:42:18.936Z,97362.05
2018-04-10T20:44:46.556Z,97351.41
2018-04-10T20:47:14.072Z,97346.20
2018-04-10T20:49:41.609Z,97349.64
2018-04-10T20:52:09.319Z,97356.27
2018-04-10T20:54:36.878Z,97358.52
2018-04-10T20:57:04.521Z,97359.95
2018-04-10T20:59:32.081Z,97359.67
2018-04-10T21:01:59.596Z,97346.63
2018-04-10T21:04:27.094Z,97346.88
2018-04-10T21:06:54.569Z,97343.41
2018-04-10T21:09:22.112Z,97340.83
2018-04-10T21:11:49.891Z,97344.05
2018-04-10T21:14:17.682Z,97337.55
2018-04-10T21:16:45.233Z,97338.84
2018-04-10T21:19:12.751Z,97335.05
2018-04-10T21:21:40.387Z,97345.31
2018-04-10T21:24:08.084Z,97351.47
2018-04-10T21:26:35.707Z,97350.62
2018-04-10T21:29:03.211Z,97348.21
2018-04-10T21:31:30.838Z,97349.42
2018-04-10T21:33:58.541Z,97358.67
2018-04-10T21:36:26.168Z,97356.78
2018-04-10T21:38:53.698Z,97358.58
2018-04-10T21:41:21.209Z,97360.86
2018-04-10T21:43:48.754Z,97361.44
2018-04-10T21:46:17.468Z,97368.27
2018-04-10T21:48:45.102Z,97360.01
2018-04-10T21:51:14.355Z,97366.30
2018-04-10T21:53:43.271Z,97362.16
2018-04-10T21:56:10.817Z,97364.90
2018-04-10T21:58:38.426Z,97363.56
2018-04-10T22:01:05.961Z,97362.44
2018-04-10T22:03:33.728Z,97365.12
2018-04-10T22:06:02.619Z,97359.48
2018-04-10T22:08:30.258Z,97365.60
2018-04-10T22:10:58.661Z,97367.39
2018-04-10T22:13:26.128Z,97366.54
2018-04-10T22:15:53.647Z,97363.53
2018-04-10T22:18:21.134Z,97367.61
2018-04-10T22:20:48.765Z,97375.05
2018-04-10T22:23:16.829Z,97386.98
2018-04-10T22:25:44.308Z,97385.94
2018-04-10T22:28:11.798Z,97392.52
2018-04-10T22:30:39.278Z,97392.45
2018-04-10T22:33:06.734Z,97391.08
2018-04-10T22:35:34.335Z,97398.34
2018-04-10T22:38:01.996Z,97390.11
2018-04-10T22:40:29.483Z,97389.38
2018-04-10T22:42:56.960Z,97391.44
2018-04-10T22:45:24.432Z,97383.62
2018-04-10T22:47:51.928Z,97384.78
2018-04-10T22:50:23.558Z,97388.98
2018-04-10T22:52:54.125Z,97392.39
2018-04-10T22:55:23.421Z,97395.73
2018-04-10T22:57:52.217Z,97395.85
2018-04-10T23:03:26.172Z,97394.09
2018-04-10T23:05:53.787Z,97395.25
2018-04-10T23:08:21.597Z,97390.75
2018-04-10T23:10:50.104Z,97389.07
2018-04-10T23:13:18.875Z,97385.59
2018-04-10T23:15:48.516Z,97390.38
2018-04-10T23:18:18.773Z,97387.88
2018-04-10T23:20:47.136Z,97387.13
2018-04-10T23:23:14.730Z,97388.70
2018-04-10T23:25:42.219Z,97388.38
2018-04-10T23:28:09.699Z,97388.61
2018-04-10T23:30:37.183Z,97390.63
2018-04-10T23:33:04.675Z,97388.78
2018-04-10T23:35:32.180Z,97386.78
2018-04-10T23:37:59.657Z,97387.95
2018-04-10T23:40:27.289Z,97396.13
2018-04-10T23:42:54.765Z,97398.96
2018-04-10T23:45:22.239Z,97395.59
2018-04-10T23:47:49.759Z,97397.20
2018-04-10T23:50:17.462Z,97398.43
2018-04-10T23:52:44.953Z,97404.91
2018-04-10T23:55:12.419Z,97402.66
2018-04-10T23:57:39.901Z,97401.22
